createdAt,value
2023-02-11T00:00:42.864Z,0.73
2023-02-11T00:03:10.434Z,1.27
2023-02-11T00:05:37.614Z,1.45
2023-02-11T00:08:04.901Z,1.50
2023-02-11T00:10:32.029Z,1.40
2023-02-11T00:12:59.141Z,2.58
2023-02-11T00:15:26.250Z,1.40
2023-02-11T00:17:53.411Z,1.17
2023-02-11T00:20:20.467Z,1.33
2023-02-11T00:22:47.535Z,1.77
2023-02-11T00:25:14.571Z,0.60
2023-02-11T00:27:42.011Z,0.50
2023-02-11T00:30:10.689Z,1.30
2023-02-11T00:32:37.919Z,1.70
2023-02-11T00:35:05.323Z,2.50
2023-02-11T00:37:32.422Z,2.22
2023-02-11T00:39:59.401Z,2.20
2023-02-11T00:42:26.467Z,1.88
2023-02-11T00:44:53.529Z,2.22
2023-02-11T00:47:20.707Z,1.50
2023-02-11T00:49:47.753Z,0.70
2023-02-11T00:52:14.777Z,0.57
2023-02-11T00:54:42.368Z,1.08
2023-02-11T00:57:11.732Z,0.90
2023-02-11T00:59:38.722Z,2.00
2023-02-11T01:02:05.802Z,2.28
2023-02-11T01:04:32.919Z,2.70
2023-02-11T01:06:59.950Z,2.58
2023-02-11T01:09:27.368Z,2.20
2023-02-11T01:11:54.388Z,2.92
2023-02-11T01:14:21.470Z,1.90
2023-02-11T01:16:48.649Z,2.30
2023-02-11T01:19:15.717Z,0.95
2023-02-11T01:21:44.436Z,0.50
2023-02-11T01:24:15.912Z,0.60
2023-02-11T01:26:43.009Z,0.55
2023-02-11T01:29:10.027Z,1.20
2023-02-11T01:31:37.460Z,1.00
2023-02-11T01:34:05.263Z,1.20
2023-02-11T01:36:32.491Z,1.10
2023-02-11T01:38:59.602Z,0.90
2023-02-11T01:41:26.763Z,1.00
2023-02-11T01:43:53.748Z,1.00
2023-02-11T01:46:25.453Z,1.08
2023-02-11T01:49:15.273Z,1.00
2023-02-11T01:51:47.508Z,0.90
2023-02-11T01:54:37.672Z,1.00
2023-02-11T01:57:25.149Z,0.75
2023-02-11T02:00:01.962Z,0.70
2023-02-11T02:02:51.234Z,0.90
2023-02-11T02:05:26.525Z,0.95
2023-02-11T02:08:38.675Z,0.90
2023-02-11T02:11:06.745Z,0.80
2023-02-11T02:13:35.113Z,0.82
2023-02-11T02:16:07.207Z,0.80
2023-02-11T02:18:54.539Z,0.80
2023-02-11T02:22:10.803Z,0.65
2023-02-11T02:25:05.589Z,0.80
2023-02-11T02:28:01.909Z,0.80
2023-02-11T02:30:44.028Z,0.70
2023-02-11T02:33:23.231Z,0.90
2023-02-11T02:36:13.771Z,0.80
2023-02-11T02:38:52.812Z,1.10
2023-02-11T02:41:23.587Z,0.80
2023-02-11T02:43:52.114Z,0.80
2023-02-11T02:46:48.451Z,0.70
2023-02-11T02:49:17.401Z,0.50
2023-02-11T02:52:17.145Z,0.68
2023-02-11T02:55:06.132Z,0.80
2023-02-11T02:58:14.862Z,0.70
2023-02-11T03:00:48.854Z,0.90
2023-02-11T03:03:26.483Z,0.98
2023-02-11T03:06:15.819Z,0.70
2023-02-11T03:08:47.934Z,0.80
2023-02-11T03:11:17.749Z,0.32
2023-02-11T03:13:47.199Z,0.47
2023-02-11T03:16:19.478Z,0.73
2023-02-11T03:19:10.952Z,0.50
2023-02-11T03:21:41.707Z,0.57
2023-02-11T03:24:17.697Z,0.50
2023-02-11T03:26:51.877Z,0.57
2023-02-11T03:29:23.756Z,0.90
2023-02-11T03:31:50.794Z,0.50
2023-02-11T03:34:44.266Z,0.50
2023-02-11T03:37:22.589Z,0.70
2023-02-11T03:39:56.866Z,1.00
2023-02-11T03:42:30.757Z,0.60
2023-02-11T03:47:30.816Z,0.60
2023-02-11T03:49:59.870Z,0.40
2023-02-11T03:52:28.094Z,0.55
2023-02-11T03:55:00.684Z,0.60
2023-02-11T03:57:27.835Z,0.90
2023-02-11T03:59:57.392Z,0.90
2023-02-11T04:02:28.740Z,0.57
2023-02-11T04:04:56.131Z,0.60
2023-02-11T04:07:23.817Z,0.40
2023-02-11T04:09:50.867Z,0.50
2023-02-11T04:12:18.197Z,0.68
2023-02-11T04:14:45.242Z,0.60
2023-02-11T04:17:13.325Z,0.55
2023-02-11T04:19:40.375Z,0.73
2023-02-11T04:22:07.965Z,0.40
2023-02-11T04:24:35.590Z,0.45
2023-02-11T04:27:02.600Z,0.50
2023-02-11T04:29:29.799Z,0.40
2023-02-11T04:31:56.923Z,0.40
2023-02-11T04:34:24.772Z,0.30
2023-02-11T04:36:52.018Z,0.28
2023-02-11T04:39:19.653Z,0.70
2023-02-11T04:41:46.723Z,0.50
2023-02-11T04:44:13.742Z,0.30
2023-02-11T04:46:40.780Z,0.40
2023-02-11T04:49:07.916Z,0.38
2023-02-11T04:51:34.876Z,0.30
2023-02-11T04:54:01.895Z,0.30
2023-02-11T04:56:28.989Z,0.30
2023-02-11T04:58:56.029Z,0.40
2023-02-11T05:01:23.124Z,0.40
2023-02-11T05:03:51.411Z,0.52
2023-02-11T05:06:18.871Z,0.45
2023-02-11T05:08:45.918Z,0.50
2023-02-11T05:11:20.128Z,0.32
2023-02-11T05:13:47.790Z,0.30
2023-02-11T05:16:16.400Z,0.40
2023-02-11T05:18:45.291Z,0.30
2023-02-11T05:21:19.056Z,0.28
2023-02-11T05:23:46.503Z,0.55
2023-02-11T05:26:14.149Z,0.25
2023-02-11T05:28:41.694Z,0.40
2023-02-11T05:31:08.967Z,0.30
2023-02-11T05:33:36.267Z,0.40
2023-02-11T05:36:07.169Z,0.30
2023-02-11T05:38:34.991Z,0.40
2023-02-11T05:41:02.151Z,0.43
2023-02-11T05:43:29.178Z,0.40
2023-02-11T05:45:56.373Z,0.45
2023-02-11T05:48:23.589Z,0.25
2023-02-11T05:50:50.637Z,0.30
2023-02-11T05:53:17.767Z,0.40
2023-02-11T05:55:44.974Z,0.40
2023-02-11T05:58:12.108Z,0.43
2023-02-11T06:00:39.151Z,0.55
2023-02-11T06:03:06.266Z,0.63
2023-02-11T06:05:33.285Z,0.50
2023-02-11T06:08:00.415Z,0.80
2023-02-11T06:10:27.603Z,0.60
2023-02-11T06:12:54.657Z,0.70
2023-02-11T06:15:21.676Z,0.60
2023-02-11T06:17:48.767Z,0.77
2023-02-11T06:20:15.837Z,0.60
2023-02-11T06:22:42.937Z,0.80
2023-02-11T06:25:11.358Z,0.63
2023-02-11T06:27:39.207Z,0.70
2023-02-11T06:30:07.690Z,0.70
2023-02-11T06:32:44.058Z,0.60
2023-02-11T06:35:13.099Z,1.17
2023-02-11T06:37:41.289Z,0.70
2023-02-11T06:40:08.990Z,0.50
2023-02-11T06:42:36.419Z,0.80
2023-02-11T06:45:06.710Z,0.50
2023-02-11T06:47:34.017Z,0.70
2023-02-11T06:50:01.150Z,0.40
2023-02-11T06:52:28.577Z,0.57
2023-02-11T06:54:55.570Z,0.60
2023-02-11T06:57:22.598Z,0.57
2023-02-11T06:59:49.832Z,0.70
2023-02-11T07:02:19.080Z,0.50
2023-02-11T07:04:47.919Z,0.50
2023-02-11T07:07:15.009Z,0.60
2023-02-11T07:09:42.249Z,0.57
2023-02-11T07:12:12.209Z,0.40
2023-02-11T07:14:39.611Z,0.40
2023-02-11T07:17:06.815Z,0.40
2023-02-11T07:19:33.878Z,0.50
2023-02-11T07:22:00.936Z,0.30
2023-02-11T07:24:28.005Z,0.50
2023-02-11T07:26:55.072Z,0.35
2023-02-11T07:29:22.227Z,0.50
2023-02-11T07:31:49.534Z,0.47
2023-02-11T07:34:16.535Z,0.40
2023-02-11T07:36:45.321Z,0.30
2023-02-11T07:39:12.808Z,0.47
2023-02-11T07:41:39.924Z,0.38
2023-02-11T07:44:07.559Z,0.40
2023-02-11T07:46:36.063Z,0.32
2023-02-11T07:49:03.930Z,0.30
2023-02-11T07:51:31.698Z,0.50
2023-02-11T07:54:00.291Z,0.40
2023-02-11T07:56:28.360Z,0.50
2023-02-11T07:58:57.170Z,0.50
2023-02-11T08:01:28.706Z,0.40
2023-02-11T08:03:57.548Z,0.50
2023-02-11T08:06:27.616Z,0.57
2023-02-11T08:08:55.131Z,0.50
2023-02-11T08:11:23.559Z,0.68
2023-02-11T08:13:51.103Z,0.68
2023-02-11T08:16:39.351Z,0.73
2023-02-11T08:19:10.708Z,0.50
2023-02-11T08:21:38.316Z,0.55
2023-02-11T08:24:06.192Z,0.70
2023-02-11T08:26:35.263Z,0.60
2023-02-11T08:29:06.144Z,0.60
2023-02-11T08:31:39.281Z,0.60
2023-02-11T08:34:07.230Z,0.60
2023-02-11T08:36:36.451Z,0.50
2023-02-11T08:39:22.203Z,0.80
2023-02-11T08:41:51.482Z,0.70
2023-02-11T08:44:22.145Z,0.50
2023-02-11T08:46:50.512Z,0.50
2023-02-11T08:49:18.191Z,0.80
2023-02-11T08:51:46.095Z,0.50
2023-02-11T08:54:13.619Z,0.60
2023-02-11T08:56:41.431Z,0.80
2023-02-11T08:59:12.374Z,0.70
2023-02-11T09:01:39.546Z,0.60
2023-02-11T09:04:06.708Z,0.60
2023-02-11T09:06:34.498Z,0.60
2023-02-11T09:09:01.692Z,0.57
2023-02-11T09:11:35.385Z,0.50
2023-02-11T09:14:03.741Z,0.60
2023-02-11T09:16:33.687Z,0.50
2023-02-11T09:19:02.382Z,0.60
2023-02-11T09:21:29.917Z,0.65
2023-02-11T09:23:57.556Z,0.50
2023-02-11T09:26:27.255Z,0.50
2023-02-11T09:28:54.936Z,0.50
2023-02-11T09:31:24.708Z,0.43
2023-02-11T09:33:54.803Z,0.45
2023-02-11T09:36:25.286Z,0.70
2023-02-11T09:38:53.332Z,0.52
2023-02-11T09:42:06.323Z,0.50
2023-02-11T09:44:35.748Z,0.75
2023-02-11T09:47:30.798Z,0.50
2023-02-11T09:50:07.056Z,0.80
2023-02-11T09:52:47.690Z,1.08
2023-02-11T09:55:29.668Z,1.00
2023-02-11T09:57:58.183Z,0.98
2023-02-11T10:00:30.145Z,0.95
2023-02-11T10:03:15.080Z,1.00
2023-02-11T10:06:10.155Z,1.05
2023-02-11T10:09:02.878Z,0.88
2023-02-11T10:11:41.929Z,0.80
2023-02-11T10:14:44.129Z,0.80
2023-02-11T10:17:35.685Z,0.73
2023-02-11T10:20:16.789Z,0.75
2023-02-11T10:22:58.977Z,0.65
2023-02-11T10:25:45.518Z,0.80
2023-02-11T10:28:22.431Z,1.10
2023-02-11T10:30:58.612Z,0.70
2023-02-11T10:33:25.747Z,0.82
2023-02-11T10:35:52.880Z,0.93
2023-02-11T10:38:20.254Z,0.80
2023-02-11T10:40:47.436Z,1.02
2023-02-11T10:43:16.796Z,0.95
2023-02-11T10:45:54.402Z,0.80
2023-02-11T10:48:36.805Z,1.00
2023-02-11T10:51:20.823Z,0.88
2023-02-11T10:54:12.599Z,1.30
2023-02-11T10:56:46.839Z,1.48
2023-02-11T10:59:40.573Z,1.35
2023-02-11T11:02:23.843Z,1.00
2023-02-11T11:04:57.814Z,0.87
2023-02-11T11:07:28.679Z,0.73
2023-02-11T11:09:59.429Z,1.42
2023-02-11T11:12:32.323Z,1.10
2023-02-11T11:15:02.171Z,1.17
2023-02-11T11:17:29.907Z,0.80
2023-02-11T11:20:19.178Z,0.80
2023-02-11T11:22:47.575Z,0.70
2023-02-11T11:25:36.498Z,0.82
2023-02-11T11:28:04.336Z,0.70
2023-02-11T11:30:41.711Z,0.73
2023-02-11T11:33:41.930Z,0.70
2023-02-11T11:36:11.891Z,0.82
2023-02-11T11:38:46.165Z,0.68
2023-02-11T11:41:17.327Z,0.77
2023-02-11T11:44:01.568Z,0.80
2023-02-11T11:49:25.948Z,0.47
2023-02-11T11:52:10.185Z,0.60
2023-02-11T11:57:16.810Z,0.70
2023-02-11T11:59:44.124Z,0.93
2023-02-11T12:02:24.855Z,0.82
2023-02-11T12:05:24.673Z,0.70
2023-02-11T12:08:30.992Z,0.77
2023-02-11T12:11:03.612Z,1.40
2023-02-11T12:13:47.130Z,1.52
2023-02-11T12:16:28.828Z,1.95
2023-02-11T12:19:08.339Z,1.13
2023-02-11T12:22:02.559Z,1.48
2023-02-11T12:24:44.505Z,1.25
2023-02-11T12:27:20.455Z,0.73
2023-02-11T12:30:04.015Z,1.27
2023-02-11T12:32:58.790Z,0.80
2023-02-11T12:35:44.150Z,1.00
2023-02-11T12:38:26.540Z,0.80
2023-02-11T12:41:02.573Z,0.90
2023-02-11T12:43:34.944Z,0.90
2023-02-11T12:46:33.854Z,0.80
2023-02-11T12:49:25.213Z,0.85
2023-02-11T12:52:04.318Z,1.17
2023-02-11T12:54:40.437Z,1.05
2023-02-11T12:57:21.354Z,0.80
2023-02-11T13:00:04.522Z,0.80
2023-02-11T13:02:37.997Z,0.60
2023-02-11T13:05:32.203Z,1.00
2023-02-11T13:08:05.392Z,0.80
2023-02-11T13:10:36.512Z,0.70
2023-02-11T13:13:16.820Z,0.80
2023-02-11T13:16:09.203Z,0.80
2023-02-11T13:18:45.214Z,0.60
2023-02-11T13:21:15.088Z,0.60
2023-02-11T13:24:06.634Z,0.80
2023-02-11T13:26:59.527Z,1.10
2023-02-11T13:29:41.898Z,1.48
2023-02-11T13:32:12.088Z,1.00
2023-02-11T13:34:42.194Z,0.90
2023-02-11T13:37:24.213Z,0.95
2023-02-11T13:40:24.457Z,0.70
2023-02-11T13:43:03.058Z,0.60
2023-02-11T13:45:42.154Z,0.70
2023-02-11T13:48:36.455Z,0.68
2023-02-11T13:51:07.158Z,0.75
2023-02-11T13:53:51.864Z,0.68
2023-02-11T13:56:28.007Z,0.73
2023-02-11T13:58:55.092Z,0.90
2023-02-11T14:02:12.715Z,0.80
2023-02-11T14:05:23.422Z,0.80
2023-02-11T14:08:30.744Z,0.50
2023-02-11T14:11:03.889Z,0.65
2023-02-11T14:13:34.743Z,0.90
2023-02-11T14:16:22.588Z,0.50
2023-02-11T14:18:55.140Z,0.60
2023-02-11T14:21:34.684Z,0.90
2023-02-11T14:24:01.714Z,0.82
2023-02-11T14:26:52.124Z,0.70
2023-02-11T14:29:40.828Z,0.85
2023-02-11T14:32:20.180Z,0.80
2023-02-11T14:35:01.469Z,0.60
2023-02-11T14:37:50.987Z,1.15
2023-02-11T14:40:31.201Z,1.00
2023-02-11T14:43:08.058Z,0.80
2023-02-11T14:45:37.221Z,0.70
2023-02-11T14:48:12.880Z,0.73
2023-02-11T14:50:47.519Z,0.70
2023-02-11T14:53:21.658Z,0.80
2023-02-11T14:55:53.918Z,0.60
2023-02-11T14:58:30.368Z,1.00
2023-02-11T15:01:12.148Z,0.80
2023-02-11T15:03:48.293Z,0.77
2023-02-11T15:06:18.647Z,0.80
2023-02-11T15:09:08.330Z,0.80
2023-02-11T15:11:40.265Z,0.90
2023-02-11T15:14:11.114Z,0.75
2023-02-11T15:16:47.759Z,0.82
2023-02-11T15:19:42.653Z,0.90
2023-02-11T15:22:22.710Z,1.10
2023-02-11T15:25:17.289Z,1.00
2023-02-11T15:27:56.775Z,0.65
2023-02-11T15:30:25.924Z,0.80
2023-02-11T15:32:59.030Z,0.70
2023-02-11T15:35:29.270Z,0.60
2023-02-11T15:37:58.005Z,0.70
2023-02-11T15:40:29.531Z,0.60
2023-02-11T15:42:59.448Z,0.60
2023-02-11T15:46:01.073Z,0.50
2023-02-11T15:48:47.490Z,0.80
2023-02-11T15:51:25.555Z,0.80
2023-02-11T15:54:06.300Z,0.60
2023-02-11T15:56:43.716Z,0.80
2023-02-11T15:59:19.524Z,0.70
2023-02-11T16:01:48.802Z,0.70
2023-02-11T16:04:25.204Z,0.80
2023-02-11T16:06:54.891Z,0.80
2023-02-11T16:09:34.380Z,0.80
2023-02-11T16:12:27.385Z,0.70
2023-02-11T16:14:56.175Z,0.77
2023-02-11T16:17:28.102Z,0.70
2023-02-11T16:19:55.649Z,0.70
2023-02-11T16:22:29.152Z,0.80
2023-02-11T16:24:59.967Z,0.60
2023-02-11T16:27:41.503Z,0.70
2023-02-11T16:30:25.491Z,0.70
2023-02-11T16:32:54.309Z,0.60
2023-02-11T16:35:21.828Z,0.80
2023-02-11T16:37:48.882Z,0.60
2023-02-11T16:40:16.354Z,0.75
2023-02-11T16:42:43.410Z,0.70
2023-02-11T16:45:10.662Z,0.80
2023-02-11T16:47:41.289Z,0.80
2023-02-11T16:50:10.805Z,0.80
2023-02-11T16:52:38.588Z,0.75
2023-02-11T16:55:06.708Z,0.60
2023-02-11T16:57:33.839Z,0.85
2023-02-11T17:00:01.000Z,0.93
2023-02-11T17:02:30.882Z,0.60
2023-02-11T17:05:15.607Z,0.90
2023-02-11T17:07:42.658Z,0.60
2023-02-11T17:10:36.014Z,0.80
2023-02-11T17:13:04.727Z,0.80
2023-02-11T17:15:32.533Z,0.70
2023-02-11T17:17:59.955Z,0.80
2023-02-11T17:20:27.039Z,0.70
2023-02-11T17:22:54.123Z,0.82
2023-02-11T17:25:21.809Z,0.68
2023-02-11T17:27:50.692Z,0.68
2023-02-11T17:30:19.874Z,0.77
2023-02-11T17:32:47.626Z,0.70
2023-02-11T17:35:14.884Z,0.90
2023-02-11T17:37:42.006Z,0.90
2023-02-11T17:40:09.765Z,0.85
2023-02-11T17:42:36.990Z,0.60
2023-02-11T17:45:04.426Z,0.70
2023-02-11T17:47:31.473Z,0.70
2023-02-11T17:49:58.887Z,0.80
2023-02-11T17:52:28.138Z,0.75
2023-02-11T17:54:56.251Z,0.90
2023-02-11T19:00:01.193Z,0.80
2023-02-11T19:02:29.602Z,0.80
2023-02-11T19:04:57.600Z,0.55
2023-02-11T19:07:25.622Z,0.68
2023-02-11T19:09:52.676Z,0.60
2023-02-11T19:12:19.932Z,0.63
2023-02-11T19:14:47.339Z,0.70
2023-02-11T19:17:14.483Z,0.90
2023-02-11T19:20:12.884Z,0.95
2023-02-11T19:22:40.468Z,0.98
2023-02-11T19:25:07.843Z,0.50
2023-02-11T19:27:34.940Z,0.80
2023-02-11T19:30:02.037Z,0.82
2023-02-11T19:32:29.138Z,0.60
2023-02-11T19:34:56.228Z,0.88
2023-02-11T19:37:23.280Z,0.60
2023-02-11T19:39:50.275Z,0.85
2023-02-11T19:42:17.388Z,0.90
2023-02-11T19:44:44.477Z,1.10
2023-02-11T19:47:12.849Z,0.85
2023-02-11T19:49:40.038Z,0.98
2023-02-11T19:52:07.093Z,0.90
2023-02-11T19:54:34.119Z,0.77
2023-02-11T19:57:04.058Z,1.00
2023-02-11T19:59:31.135Z,1.05
2023-02-11T20:01:58.244Z,1.30
2023-02-11T20:04:25.482Z,1.30
2023-02-11T20:06:52.688Z,1.08
2023-02-11T20:09:19.850Z,1.20
2023-02-11T20:11:46.939Z,0.98
2023-02-11T20:14:15.453Z,1.17
2023-02-11T20:16:49.180Z,1.20
2023-02-11T20:19:19.281Z,1.13
2023-02-11T20:21:48.222Z,1.30
2023-02-11T20:24:17.246Z,1.83
2023-02-11T20:26:45.459Z,1.15
2023-02-11T20:29:12.826Z,1.27
2023-02-11T20:31:40.088Z,1.35
2023-02-11T20:34:07.276Z,1.23
2023-02-11T20:36:37.801Z,2.70
2023-02-11T20:39:06.090Z,2.92
2023-02-11T20:41:35.284Z,1.90
2023-02-11T20:44:05.241Z,1.00
2023-02-11T20:46:33.799Z,1.00
2023-02-11T20:49:01.892Z,1.40
2023-02-11T20:51:30.970Z,1.13
2023-02-11T20:53:58.483Z,1.30
2023-02-11T20:56:31.169Z,1.58
2023-02-11T20:58:59.530Z,1.20
2023-02-11T21:01:32.142Z,1.50
2023-02-11T21:04:02.573Z,1.42
2023-02-11T21:06:39.266Z,1.33
2023-02-11T21:09:07.848Z,1.33
2023-02-11T21:11:35.492Z,1.77
2023-02-11T21:14:02.854Z,2.00
2023-02-11T21:16:32.021Z,1.83
2023-02-11T21:19:00.769Z,1.80
2023-02-11T21:21:27.983Z,1.23
2023-02-11T21:23:56.385Z,1.48
2023-02-11T21:26:23.495Z,1.50
2023-02-11T21:28:52.287Z,1.40
2023-02-11T21:31:23.100Z,1.23
2023-02-11T21:33:51.041Z,1.30
2023-02-11T21:36:18.164Z,0.98
2023-02-11T21:38:45.191Z,0.95
2023-02-11T21:41:12.752Z,0.80
2023-02-11T21:43:39.905Z,1.08
2023-02-11T21:46:09.103Z,1.00
2023-02-11T21:48:36.570Z,1.27
2023-02-11T21:51:09.252Z,1.10
2023-02-11T21:53:36.377Z,1.40
2023-02-11T21:56:17.613Z,1.58
2023-02-11T21:58:46.127Z,1.58
2023-02-11T22:01:19.101Z,1.88
2023-02-11T22:03:46.586Z,2.15
2023-02-11T22:06:16.837Z,1.80
2023-02-11T22:08:44.556Z,2.30
2023-02-11T22:11:12.891Z,2.35
2023-02-11T22:13:41.158Z,2.75
2023-02-11T22:16:11.162Z,2.10
2023-02-11T22:18:38.468Z,2.30
2023-02-11T22:21:11.895Z,1.90
2023-02-11T22:23:39.782Z,1.50
2023-02-11T22:26:09.635Z,1.33
2023-02-11T22:28:39.229Z,1.40
2023-02-11T22:31:27.002Z,1.20
2023-02-11T22:33:54.508Z,1.20
2023-02-11T22:36:27.445Z,1.40
2023-02-11T22:38:55.474Z,1.40
2023-02-11T22:41:23.796Z,1.45
2023-02-11T22:43:51.086Z,1.50
2023-02-11T22:46:20.186Z,1.90
2023-02-11T22:48:47.725Z,1.80
2023-02-11T22:51:21.416Z,1.80
2023-02-11T22:53:59.415Z,1.90
2023-02-11T22:56:27.315Z,2.13
2023-02-11T22:59:00.555Z,1.90
2023-02-11T23:01:28.193Z,1.85
2023-02-11T23:03:55.357Z,1.20
2023-02-11T23:06:22.463Z,1.20
2023-02-11T23:08:49.484Z,1.02
2023-02-11T23:11:19.597Z,0.85
2023-02-11T23:13:47.855Z,0.70
2023-02-11T23:16:18.037Z,0.95
2023-02-11T23:18:47.004Z,0.90
2023-02-11T23:21:22.870Z,0.90
2023-02-11T23:23:55.243Z,0.70
2023-02-11T23:26:22.319Z,0.57
2023-02-11T23:28:49.605Z,0.57
2023-02-11T23:31:24.172Z,0.90
2023-02-11T23:33:51.795Z,0.60
2023-02-11T23:36:20.020Z,0.70
2023-02-11T23:38:47.731Z,0.50
2023-02-11T23:41:15.786Z,0.75
2023-02-11T23:43:43.039Z,0.80
2023-02-11T23:46:10.953Z,0.60
2023-02-11T23:48:38.883Z,0.60
2023-02-11T23:51:06.694Z,0.70
2023-02-11T23:53:33.871Z,0.80
2023-02-11T23:56:00.908Z,0.90
2023-02-11T23:58:27.985Z,0.88
